Bookmark and Share
Track history (hours):
 

Cimbria

Last reported at 2014-Apr-15 17:33 UTC. Time now 2014-Apr-16 19:28 UTC.
Position N 35°36' E 011°23'.

Length 109 m; draft 4.8 m.

Type: Cargo ship. MMSI: 304981000.

NotesDate/timePositionNaut miles runAvg speedWind from/ knotsBaromVisibWave heightAir tempDewpointWater temp
2014-Apr-15 17:33N 35°36' E 011°23'1111.4
2014-Apr-15 16:33N 35°46' E 011°17'1010.0
2014-Apr-15 15:33N 35°52' E 011°07'1410.9
2014-Apr-15 14:17N 35°51' E 010°50'8 4.7
2014-Apr-15 12:34N 35°49' E 010°40'1 0.2
2014-Apr-15 08:31N 35°50' E 010°39'0 0.0
2014-Apr-15 07:31N 35°50' E 010°39'0 0.0
2014-Apr-15 06:31N 35°50' E 010°39'0 0.0
2014-Apr-15 05:31N 35°50' E 010°39'23 0.7
2014-Apr-13 22:26N 36°08' E 010°55'1112.0
2014-Apr-13 21:32N 36°17' E 011°02'1212.1
2014-Apr-13 20:33N 36°27' E 011°10'1211.6
2014-Apr-13 19:33N 36°38' E 011°16'1212.2
2014-Apr-13 18:33N 36°50' E 011°16'1212.2
2014-Apr-13 17:33N 37°02' E 011°16'1212.1
2014-Apr-13 16:33N 37°15' E 011°17'25511.3
2014-Apr-12 18:05N 37°17' E 005°57'611.9
2014-Apr-12 17:33N 37°17' E 005°49'5911.9
2014-Apr-12 12:33N 37°14' E 004°34'1312.7
2014-Apr-12 11:33N 37°12' E 004°18'1212.1
2014-Apr-12 10:33N 37°10' E 004°03'9411.6
2014-Apr-12 02:28N 36°55' E 002°07'19112.0
2014-Apr-11 10:33N 36°26' W 001°48'16311.6
2014-Apr-10 20:28N 35°57' W 005°08'1010.7
2014-Apr-10 19:33N 35°54' W 005°19'0 0.1
2014-Apr-10 18:33N 35°54' W 005°19'0 0.0
2014-Apr-10 17:33N 35°54' W 005°19'0 0.0
2014-Apr-10 16:33N 35°54' W 005°19'0 0.5
2014-Apr-10 15:33N 35°54' W 005°19'7 6.9
2014-Apr-10 14:33N 35°57' W 005°26'1010.4
2014-Apr-10 13:33N 35°55' W 005°39'10 9.9
2014-Apr-10 12:31N 35°55' W 005°52'97 8.8
2014-Apr-10 01:30N 36°15' W 007°49'1010.0
2014-Apr-10 00:33N 36°18' W 008°01'1010.0
2014-Apr-09 23:33N 36°21' W 008°13'1010.1
2014-Apr-09 22:32N 36°23' W 008°25'1010.0
2014-Apr-09 21:33N 36°26' W 008°37'83 9.3
2014-Apr-09 12:33N 37°29' W 009°44'1110.2
2014-Apr-09 11:26N 37°40' W 009°48'910.1
2014-Apr-09 10:33N 37°49' W 009°50'1010.2
2014-Apr-09 09:33N 37°59' W 009°53'1110.3
2014-Apr-09 08:31N 38°09' W 009°56'1210.9
2014-Apr-09 07:28N 38°21' W 009°60'1010.8
2014-Apr-09 06:33N 38°30' W 010°02'1110.8
2014-Apr-09 05:33N 38°41' W 010°05'1411.2
2014-Apr-09 04:17N 38°55' W 010°06'  
2014-Apr-05 22:14N 50°35' W 005°36'6 8.6
2014-Apr-05 21:31N 50°38' W 005°28'  

Dump ship's entire track history

sailing weather and tide predictions

Cimbria — V2CC7 — position and weather